Time;durP1;ratioP1;P1;durP2;ratioP2;P2;SDS_P1;SDS_P2;PMS_P1;PMS_P2;Temp;Humidity;BMP_temperature;BMP_pressure;BME280_temperature;BME280_humidity;BME280_pressure;Samples;Min_cycle;Max_cycle;Signal;HPM_P1;HPM_P2
2023/04/28 00:01:36;;;;;;;4.30;2.17;;;;;;;7.93;41.53;95179.59;5029998;28;20431;-84
2023/04/28 00:04:02;;;;;;;3.15;2.33;;;;;;;7.95;41.30;95177.97;5028458;28;20045;-84
2023/04/28 00:06:29;;;;;;;3.75;2.22;;;;;;;7.93;41.57;95185.06;5028098;28;20419;-81
2023/04/28 00:08:55;;;;;;;3.72;2.25;;;;;;;8.02;41.56;95181.78;5027049;28;20488;-82
2023/04/28 00:11:20;;;;;;;5.15;2.30;;;;;;;7.94;41.46;95181.91;5026883;28;20109;-83
2023/04/28 00:13:46;;;;;;;5.50;2.35;;;;;;;7.90;41.68;95177.66;5026111;28;20584;-83
2023/04/28 00:16:11;;;;;;;6.75;2.70;;;;;;;7.84;41.77;95182.06;5026281;28;20038;-83
2023/04/28 00:18:36;;;;;;;4.95;2.58;;;;;;;7.90;41.72;95183.91;5038219;28;20111;-82
2023/04/28 00:21:02;;;;;;;5.05;2.45;;;;;;;7.92;41.77;95181.56;5026314;28;20419;-82
2023/04/28 00:23:27;;;;;;;5.00;2.53;;;;;;;7.88;41.90;95174.56;5026337;28;20041;-82
2023/04/28 00:25:54;;;;;;;4.38;2.90;;;;;;;7.81;41.93;95180.94;5008551;28;20103;-82
2023/04/28 00:28:19;;;;;;;4.75;2.35;;;;;;;7.82;41.94;95185.22;5025594;28;20414;-82
2023/04/28 00:30:45;;;;;;;4.65;2.78;;;;;;;7.81;41.96;95180.16;5025688;28;20018;-82
2023/04/28 00:33:11;;;;;;;7.50;2.92;;;;;;;7.79;42.23;95185.25;5025136;28;20560;-82
2023/04/28 00:35:36;;;;;;;3.00;2.45;;;;;;;7.73;42.19;95184.94;5025732;28;20120;-81
2023/04/28 00:38:02;;;;;;;4.75;2.20;;;;;;;7.75;42.09;95190.78;5025681;28;20104;-81
2023/04/28 00:40:34;;;;;;;7.28;2.70;;;;;;;7.58;42.44;95189.84;5031860;28;20033;-82
2023/04/28 00:43:00;;;;;;;3.42;2.60;;;;;;;7.52;42.53;95193.44;5026816;28;20018;-81
2023/04/28 00:45:25;;;;;;;4.72;2.65;;;;;;;7.38;42.95;95199.84;5026878;28;20082;-82
2023/04/28 00:47:51;;;;;;;5.72;2.42;;;;;;;7.39;42.95;95196.72;5025070;28;20045;-83
2023/04/28 00:50:16;;;;;;;3.60;2.85;;;;;;;7.31;43.03;95202.69;5024921;28;20544;-84
2023/04/28 00:52:42;;;;;;;5.65;2.70;;;;;;;7.22;43.44;95205.13;5025439;28;20044;-84
2023/04/28 00:55:08;;;;;;;3.67;2.65;;;;;;;7.26;43.24;95201.19;5024384;28;20139;-82
2023/04/28 00:57:34;;;;;;;3.42;2.47;;;;;;;7.24;43.47;95202.78;5026885;28;20825;-82
2023/04/28 01:00:01;;;;;;;4.50;2.63;;;;;;;7.25;43.35;95207.06;5023542;28;20073;-82
2023/04/28 01:02:28;;;;;;;3.67;2.35;;;;;;;7.17;43.46;95201.69;5026650;28;20030;-82
2023/04/28 01:04:55;;;;;;;6.57;2.65;;;;;;;7.19;43.51;95210.25;5025923;28;20488;-82
2023/04/28 01:07:21;;;;;;;3.75;2.55;;;;;;;7.19;43.46;95210.25;5024568;28;20036;-83
2023/04/28 01:09:46;;;;;;;3.30;2.35;;;;;;;7.13;43.51;95209.13;5026323;28;20033;-82
2023/04/28 01:12:12;;;;;;;3.65;2.40;;;;;;;7.12;43.54;95204.09;5035657;28;20040;-82
2023/04/28 01:14:37;;;;;;;4.30;2.60;;;;;;;7.10;43.63;95209.94;5028293;28;20032;-82
2023/04/28 01:17:03;;;;;;;4.07;2.47;;;;;;;7.05;43.65;95213.13;5023124;28;20527;-82
2023/04/28 01:19:29;;;;;;;4.20;2.40;;;;;;;7.10;43.61;95214.63;5025363;28;20033;-82
2023/04/28 01:21:54;;;;;;;5.78;2.50;;;;;;;7.07;43.58;95218.97;5025334;28;20029;-83
2023/04/28 01:24:19;;;;;;;5.20;2.50;;;;;;;7.11;43.60;95216.19;5024955;28;20079;-83
2023/04/28 01:26:45;;;;;;;5.72;2.90;;;;;;;6.95;43.84;95222.22;5025270;28;20036;-83
2023/04/28 01:29:10;;;;;;;5.68;2.78;;;;;;;6.89;43.78;95212.91;5007812;28;20026;-82
2023/04/28 01:31:36;;;;;;;4.35;2.33;;;;;;;6.93;43.91;95222.63;5024457;28;20401;-83
2023/04/28 01:34:01;;;;;;;6.22;2.60;;;;;;;6.87;43.83;95218.78;5025120;28;20022;-82
2023/04/28 01:36:27;;;;;;;3.92;2.58;;;;;;;6.90;43.71;95217.19;5024831;28;20148;-81
2023/04/28 01:38:53;;;;;;;4.28;2.30;;;;;;;6.87;44.05;95210.56;5024775;28;20022;-82
2023/04/28 01:41:19;;;;;;;4.03;2.47;;;;;;;6.86;43.87;95213.72;5024815;28;20143;-82
2023/04/28 01:43:44;;;;;;;5.25;3.00;;;;;;;6.85;43.70;95217.63;5023534;28;20109;-83
2023/04/28 01:46:10;;;;;;;3.80;2.60;;;;;;;6.90;43.61;95220.72;5032244;28;20021;-84
2023/04/28 01:48:35;;;;;;;4.07;2.53;;;;;;;6.77;43.92;95216.16;5023945;28;20147;-82
2023/04/28 01:51:01;;;;;;;4.43;2.75;;;;;;;6.82;43.84;95212.97;5025000;28;20118;-82
2023/04/28 01:53:26;;;;;;;5.97;3.00;;;;;;;6.85;43.82;95218.41;5025576;28;20029;-82
2023/04/28 01:55:53;;;;;;;4.05;2.67;;;;;;;6.75;43.88;95216.56;5022736;28;20060;-83
2023/04/28 01:58:18;;;;;;;5.93;3.03;;;;;;;6.81;43.89;95217.66;5024622;28;20033;-82
2023/04/28 02:00:44;;;;;;;4.95;2.78;;;;;;;6.74;43.99;95214.22;5022654;28;20050;-84
2023/04/28 02:03:10;;;;;;;4.90;2.95;;;;;;;6.66;44.20;95216.28;5024632;28;20049;-82
2023/04/28 02:05:36;;;;;;;6.40;3.22;;;;;;;6.62;44.29;95221.75;5024690;28;20109;-82
2023/04/28 02:08:01;;;;;;;6.20;2.55;;;;;;;6.62;44.00;95223.72;5032392;28;20055;-83
2023/04/28 02:10:27;;;;;;;5.32;2.90;;;;;;;6.62;44.21;95226.44;5025450;28;20025;-84
2023/04/28 02:12:52;;;;;;;4.32;3.15;;;;;;;6.58;44.35;95218.28;5024687;28;20933;-83
2023/04/28 02:15:18;;;;;;;4.47;3.08;;;;;;;6.62;44.07;95223.72;5025624;28;20151;-83
2023/04/28 02:17:43;;;;;;;5.05;3.00;;;;;;;6.64;44.23;95222.13;5022431;28;20034;-84
2023/04/28 02:20:09;;;;;;;4.00;2.63;;;;;;;6.66;44.30;95229.94;5024544;28;20086;-82
2023/04/28 02:22:35;;;;;;;6.28;2.90;;;;;;;6.62;44.36;95226.44;5006554;28;20091;-82
2023/04/28 02:25:02;;;;;;;5.22;2.90;;;;;;;6.63;43.96;95234.22;5023742;28;20047;-81
2023/04/28 02:27:27;;;;;;;6.72;3.38;;;;;;;6.55;44.23;95224.56;5024159;28;20138;-81
2023/04/28 02:29:52;;;;;;;5.72;3.65;;;;;;;6.59;44.42;95225.28;5024108;28;20033;-81
2023/04/28 02:32:18;;;;;;;3.85;2.83;;;;;;;6.58;44.41;95242.09;5025697;28;20080;-82
2023/04/28 02:34:43;;;;;;;6.47;3.10;;;;;;;6.60;44.09;95234.28;5023905;28;20113;-81
2023/04/28 02:37:09;;;;;;;5.38;2.90;;;;;;;6.58;44.68;95247.53;5026028;28;20034;-82
2023/04/28 02:39:34;;;;;;;4.97;2.75;;;;;;;6.58;44.49;95242.84;5022413;28;20018;-82
2023/04/28 02:41:59;;;;;;;2.95;2.55;;;;;;;6.47;44.56;95239.44;5025259;28;20075;-81
2023/04/28 02:44:25;;;;;;;5.28;2.63;;;;;;;6.50;44.64;95240.59;5025509;28;20037;-81
2023/04/28 02:46:51;;;;;;;4.72;2.83;;;;;;;6.38;44.62;95239.13;5024818;28;20030;-81
2023/04/28 02:49:16;;;;;;;6.47;3.05;;;;;;;6.47;44.84;95246.84;5027135;28;20112;-81
2023/04/28 02:51:42;;;;;;;3.22;2.83;;;;;;;6.49;44.59;95248.03;5031306;28;20386;-81
2023/04/28 02:54:07;;;;;;;4.75;2.70;;;;;;;6.45;44.81;95244.53;5025527;28;20037;-82
2023/04/28 02:56:33;;;;;;;5.75;2.80;;;;;;;6.31;45.01;95252.84;5022513;28;20544;-83
2023/04/28 02:58:59;;;;;;;3.28;2.60;;;;;;;6.31;44.72;95248.16;5024024;28;20080;-82
2023/04/28 03:01:24;;;;;;;4.47;2.88;;;;;;;6.33;44.82;95248.53;5030788;28;20041;-82
2023/04/28 03:03:50;;;;;;;5.00;3.33;;;;;;;6.34;44.82;95258.25;5027852;28;20022;-82
2023/04/28 03:06:15;;;;;;;3.80;2.90;;;;;;;6.38;44.78;95255.53;5023488;28;20112;-83
2023/04/28 03:08:41;;;;;;;4.55;2.63;;;;;;;6.34;44.73;95255.53;5023524;28;20530;-82
2023/04/28 03:11:06;;;;;;;3.53;2.30;;;;;;;6.41;44.44;95257.44;5024633;28;20040;-83
2023/04/28 03:13:31;;;;;;;4.07;2.50;;;;;;;6.39;44.39;95257.84;5024626;28;20033;-84
2023/04/28 03:15:58;;;;;;;7.72;2.67;;;;;;;6.38;44.36;95267.22;5007999;28;20113;-82
2023/04/28 03:18:24;;;;;;;5.72;2.80;;;;;;;6.43;44.21;95267.97;5024253;28;20037;-82
2023/04/28 03:20:49;;;;;;;5.03;2.90;;;;;;;6.43;44.25;95263.28;5025093;28;20033;-82
2023/04/28 03:23:15;;;;;;;3.90;2.78;;;;;;;6.44;44.49;95262.09;5022906;28;20472;-84
2023/04/28 03:25:40;;;;;;;4.60;2.58;;;;;;;6.47;44.00;95271.44;5023621;28;20868;-81
2023/04/28 03:28:06;;;;;;;7.65;2.95;;;;;;;6.46;44.18;95273.38;5006032;28;20044;-78
2023/04/28 03:30:31;;;;;;;5.00;3.20;;;;;;;6.51;44.18;95286.63;5006668;28;20083;-79
2023/04/28 03:32:56;;;;;;;11.95;3.47;;;;;;;6.49;44.23;95289.00;5023026;28;20056;-79
2023/04/28 03:35:22;;;;;;;8.40;3.05;;;;;;;6.49;44.02;95299.91;5022185;28;20053;-81
2023/04/28 03:37:48;;;;;;;5.32;2.67;;;;;;;6.49;43.97;95299.91;5025008;28;20419;-79
2023/04/28 03:40:14;;;;;;;5.47;3.17;;;;;;;6.44;44.09;95296.84;5023342;28;20063;-81
2023/04/28 03:42:40;;;;;;;4.68;3.88;;;;;;;6.40;44.08;95302.31;5026871;28;20296;-79
2023/04/28 03:45:06;;;;;;;5.43;3.45;;;;;;;6.43;44.20;95306.97;5025530;28;20032;-81
2023/04/28 03:47:32;;;;;;;7.35;4.20;;;;;;;6.46;44.00;95305.38;5009830;28;20036;-82
2023/04/28 03:49:57;;;;;;;9.93;4.32;;;;;;;6.48;44.01;95306.56;5026055;28;20030;-81
2023/04/28 03:52:23;;;;;;;6.40;2.90;;;;;;;6.37;43.92;95298.44;5027481;28;20030;-80
2023/04/28 03:54:49;;;;;;;8.57;3.35;;;;;;;6.35;43.96;95314.44;5028947;28;20026;-79
2023/04/28 03:57:14;;;;;;;8.35;3.42;;;;;;;6.41;44.03;95317.50;5040488;28;20505;-81
2023/04/28 03:59:40;;;;;;;7.82;2.80;;;;;;;6.47;43.88;95318.63;5027591;28;20125;-81
2023/04/28 04:02:05;;;;;;;4.70;2.90;;;;;;;6.46;43.59;95322.56;5026802;28;20030;-81
2023/04/28 04:04:31;;;;;;;7.13;2.63;;;;;;;6.44;43.76;95318.69;5026249;28;20528;-81
2023/04/28 04:06:56;;;;;;;5.57;3.00;;;;;;;6.50;43.56;95325.28;5025717;28;20034;-81
2023/04/28 04:09:22;;;;;;;5.03;3.08;;;;;;;6.51;43.43;95327.59;5025492;28;20069;-80
2023/04/28 04:11:47;;;;;;;4.75;3.22;;;;;;;6.54;43.34;95326.03;5027657;28;20052;-80
2023/04/28 04:14:13;;;;;;;4.80;3.03;;;;;;;6.60;43.38;95327.94;5026389;28;20493;-82
2023/04/28 04:16:38;;;;;;;4.90;3.10;;;;;;;6.67;43.35;95334.53;5026559;28;20052;-82
2023/04/28 04:19:03;;;;;;;7.53;3.40;;;;;;;6.61;43.19;95334.94;5024710;28;20465;-81
2023/04/28 04:21:30;;;;;;;7.32;3.33;;;;;;;6.63;43.15;95337.25;5027692;28;20041;-82
2023/04/28 04:23:55;;;;;;;6.75;3.22;;;;;;;6.69;42.93;95348.53;5026481;28;20033;-82
2023/04/28 04:26:21;;;;;;;6.05;3.15;;;;;;;6.69;42.99;95346.59;5025546;28;20421;-80
2023/04/28 04:28:46;;;;;;;6.53;3.20;;;;;;;6.75;42.92;95344.97;5025319;28;20114;-81
2023/04/28 04:31:12;;;;;;;6.90;2.80;;;;;;;6.80;42.86;95355.47;5026483;28;20056;-81
2023/04/28 04:33:37;;;;;;;6.47;2.78;;;;;;;6.75;42.92;95347.72;5027456;28;20434;-81
2023/04/28 04:36:03;;;;;;;4.60;2.97;;;;;;;6.80;42.85;95349.25;5026110;28;20480;-83
2023/04/28 04:38:29;;;;;;;3.97;2.83;;;;;;;6.79;42.89;95348.47;5026507;28;20159;-82
2023/04/28 04:40:55;;;;;;;6.65;3.17;;;;;;;6.80;42.95;95352.75;5024489;28;20171;-83
2023/04/28 04:43:20;;;;;;;6.30;3.08;;;;;;;6.82;43.12;95350.38;5025702;28;20032;-83
2023/04/28 04:45:46;;;;;;;5.82;3.30;;;;;;;6.87;43.00;95355.41;5026215;28;20041;-83
2023/04/28 04:48:11;;;;;;;4.32;2.72;;;;;;;6.91;43.09;95369.06;5025085;28;20537;-81
2023/04/28 04:50:36;;;;;;;3.95;2.90;;;;;;;6.94;42.70;95360.06;5036296;28;20029;-81
2023/04/28 04:53:02;;;;;;;11.52;3.05;;;;;;;6.88;43.05;95365.19;5025921;28;20117;-82
2023/04/28 04:55:27;;;;;;;5.32;2.70;;;;;;;6.87;43.28;95365.56;5026814;28;20095;-81
2023/04/28 04:57:54;;;;;;;5.47;3.17;;;;;;;6.86;43.46;95366.75;5024204;28;20021;-81
2023/04/28 05:00:19;;;;;;;6.25;2.90;;;;;;;6.88;43.53;95375.31;5035708;28;20056;-81
2023/04/28 05:02:45;;;;;;;4.85;2.80;;;;;;;6.84;43.75;95377.31;5031439;28;20033;-81
2023/04/28 05:05:10;;;;;;;5.85;3.08;;;;;;;6.71;44.42;95371.56;5024796;28;20105;-81
2023/04/28 05:07:35;;;;;;;4.00;2.90;;;;;;;6.55;44.75;95374.78;5025745;28;20029;-81
2023/04/28 05:10:01;;;;;;;6.72;3.35;;;;;;;6.69;44.60;95382.09;5025909;28;20048;-82
2023/04/28 05:12:26;;;;;;;5.53;3.20;;;;;;;6.82;44.50;95372.25;5026062;28;20037;-82
2023/04/28 05:14:51;;;;;;;6.22;3.53;;;;;;;6.88;44.61;95383.53;5007434;28;20029;-83
2023/04/28 05:17:17;;;;;;;5.75;2.92;;;;;;;6.96;44.71;95381.53;5027621;28;20499;-81
2023/04/28 05:19:42;;;;;;;4.88;3.50;;;;;;;6.97;44.30;95388.56;5030310;28;20083;-83
2023/04/28 05:22:08;;;;;;;6.38;3.53;;;;;;;7.03;44.04;95382.25;5027673;28;20345;-82
2023/04/28 05:24:33;;;;;;;4.03;2.70;;;;;;;7.16;44.08;95388.75;5007337;28;20053;-82
2023/04/28 05:26:59;;;;;;;3.95;3.08;;;;;;;7.13;44.35;95380.63;5024520;28;20419;-82
2023/04/28 05:29:24;;;;;;;4.18;2.92;;;;;;;7.12;44.44;95392.72;5025382;28;20033;-82
2023/04/28 05:31:49;;;;;;;6.85;3.17;;;;;;;6.93;44.81;95383.09;5024216;28;20033;-82
2023/04/28 05:34:15;;;;;;;5.72;3.25;;;;;;;6.99;44.76;95391.66;5024716;28;20029;-82
2023/04/28 05:36:40;;;;;;;4.60;2.85;;;;;;;7.04;44.83;95383.03;5024911;28;20021;-81
2023/04/28 05:39:06;;;;;;;7.00;3.03;;;;;;;6.88;44.87;95369.84;5008428;28;20498;-82
2023/04/28 05:41:33;;;;;;;3.97;3.13;;;;;;;6.96;44.52;95382.31;5023383;28;20029;-82
2023/04/28 05:43:58;;;;;;;7.60;3.33;;;;;;;6.91;44.91;95374.53;5029023;28;20022;-82
2023/04/28 05:46:23;;;;;;;5.43;3.30;;;;;;;6.98;44.96;95384.63;5034166;28;20116;-81
2023/04/28 05:48:50;;;;;;;5.70;3.40;;;;;;;6.97;44.85;95377.63;5024251;28;20029;-82
2023/04/28 05:51:15;;;;;;;5.88;3.50;;;;;;;6.85;45.11;95387.06;5024293;28;20033;-80
2023/04/28 05:53:41;;;;;;;7.15;2.72;;;;;;;7.04;44.67;95378.31;5023135;28;20029;-81
2023/04/28 05:56:06;;;;;;;5.13;3.10;;;;;;;7.25;43.91;95393.00;5026408;28;20026;-81
2023/04/28 05:58:32;;;;;;;5.20;2.78;;;;;;;7.17;44.30;95384.09;5022863;28;20159;-83
2023/04/28 06:00:57;;;;;;;6.40;3.13;;;;;;;7.21;43.94;95386.78;5024501;28;20123;-82
2023/04/28 06:03:23;;;;;;;4.03;2.83;;;;;;;7.24;44.01;95381.31;5025012;28;20075;-82
2023/04/28 06:05:48;;;;;;;4.28;2.95;;;;;;;7.49;43.42;95386.53;5034692;28;20025;-83
2023/04/28 06:08:14;;;;;;;4.75;3.08;;;;;;;7.56;43.08;95386.44;5012460;28;20025;-81
2023/04/28 06:10:40;;;;;;;5.65;2.97;;;;;;;7.48;43.30;95381.47;5024941;28;20026;-81
2023/04/28 06:13:05;;;;;;;5.07;3.50;;;;;;;7.66;42.56;95388.31;5024056;28;20454;-81
2023/04/28 06:15:32;;;;;;;5.35;3.10;;;;;;;7.64;42.90;95382.47;5024053;28;20025;-81
2023/04/28 06:17:58;;;;;;;4.65;2.70;;;;;;;7.70;42.98;95380.06;5024507;28;20041;-82
2023/04/28 06:20:23;;;;;;;8.00;3.20;;;;;;;7.88;42.90;95383.38;5022642;28;20112;-82
2023/04/28 06:22:49;;;;;;;7.43;3.38;;;;;;;8.04;42.21;95387.53;5023734;28;20105;-82
2023/04/28 06:25:14;;;;;;;5.90;2.80;;;;;;;8.04;42.25;95388.28;5024227;28;20017;-81
2023/04/28 06:27:40;;;;;;;8.48;3.40;;;;;;;8.05;42.40;95389.84;5024405;28;20041;-79
2023/04/28 06:30:06;;;;;;;4.93;3.00;;;;;;;8.05;42.19;95389.84;5024844;28;20033;-79
2023/04/28 06:32:31;;;;;;;5.78;3.53;;;;;;;8.28;41.84;95393.88;5023983;28;20033;-80
2023/04/28 06:34:56;;;;;;;9.27;3.70;;;;;;;8.27;42.02;95384.88;5025102;28;20079;-80
2023/04/28 06:37:22;;;;;;;3.95;3.00;;;;;;;8.24;42.20;95388.44;5005876;28;20036;-79
2023/04/28 06:39:47;;;;;;;4.07;3.05;;;;;;;8.33;41.79;95383.25;5029211;28;20118;-81
2023/04/28 06:42:15;;;;;;;6.53;2.90;;;;;;;8.32;41.59;95380.91;5026024;28;20509;-80
2023/04/28 06:44:40;;;;;;;6.78;3.33;;;;;;;8.32;41.68;95380.91;5024750;28;20488;-80
2023/04/28 06:47:06;;;;;;;4.40;3.28;;;;;;;8.46;41.55;95386.22;5024319;28;20045;-80
2023/04/28 06:49:31;;;;;;;5.18;2.95;;;;;;;8.52;40.86;95390.06;5024403;28;20616;-78
2023/04/28 06:51:56;;;;;;;6.68;2.97;;;;;;;8.56;41.21;95390.03;5024647;28;20025;-80
2023/04/28 06:54:22;;;;;;;4.13;2.65;;;;;;;8.68;40.88;95382.00;5006121;28;20412;-81
2023/04/28 06:56:47;;;;;;;4.07;2.90;;;;;;;8.80;40.73;95379.88;5024863;28;20073;-80
2023/04/28 06:59:12;;;;;;;6.28;3.25;;;;;;;8.78;40.36;95381.06;5023890;28;20025;-79
2023/04/28 07:01:38;;;;;;;4.68;3.00;;;;;;;9.03;39.58;95379.91;5024653;28;20049;-81
2023/04/28 07:04:03;;;;;;;5.30;3.78;;;;;;;9.08;39.29;95370.44;5022511;28;20055;-80
2023/04/28 07:06:30;;;;;;;6.10;3.10;;;;;;;9.15;39.34;95378.56;5006659;28;20021;-80
2023/04/28 07:08:56;;;;;;;5.22;3.00;;;;;;;9.38;38.96;95375.03;5022441;28;20041;-82
2023/04/28 07:11:22;;;;;;;6.82;2.78;;;;;;;9.42;38.41;95373.78;5034697;28;20017;-81
2023/04/28 07:13:50;;;;;;;5.45;3.22;;;;;;;9.30;38.29;95372.41;5008357;28;20106;-81
2023/04/28 07:16:18;;;;;;;4.38;3.33;;;;;;;9.39;38.22;95373.84;5026137;28;20114;-81
2023/04/28 07:18:44;;;;;;;7.50;3.58;;;;;;;9.51;38.21;95376.75;5011570;28;20029;-82
2023/04/28 07:21:10;;;;;;;4.00;3.00;;;;;;;9.54;37.34;95375.16;5025969;28;20034;-81
2023/04/28 07:23:37;;;;;;;4.88;2.53;;;;;;;9.80;37.04;95377.00;5026841;28;20139;-82
2023/04/28 07:26:03;;;;;;;4.97;3.08;;;;;;;10.08;36.83;95367.44;5027237;28;20030;-80
2023/04/28 07:28:28;;;;;;;6.50;2.70;;;;;;;10.22;36.03;95371.88;5026624;28;20022;-82
2023/04/28 07:30:53;;;;;;;6.55;3.10;;;;;;;10.36;35.35;95368.09;5026448;28;20029;-82
2023/04/28 07:33:19;;;;;;;4.55;3.00;;;;;;;10.34;34.75;95370.50;5028454;28;20025;-82
2023/04/28 07:35:45;;;;;;;6.00;2.70;;;;;;;10.53;34.63;95366.16;5035240;28;20021;-82
2023/04/28 07:38:10;;;;;;;4.30;3.03;;;;;;;10.56;34.21;95376.31;5025818;28;20036;-82
2023/04/28 07:40:36;;;;;;;5.82;2.65;;;;;;;10.61;34.03;95368.34;5029296;28;20049;-82
2023/04/28 07:43:02;;;;;;;3.95;2.58;;;;;;;10.56;34.23;95363.34;5027111;28;20452;-82
2023/04/28 07:45:28;;;;;;;5.15;2.40;;;;;;;10.62;34.52;95367.13;5027757;28;20087;-82
2023/04/28 07:47:53;;;;;;;4.30;2.30;;;;;;;10.84;34.37;95370.19;5027684;28;20387;-82
2023/04/28 07:50:18;;;;;;;5.35;2.55;;;;;;;11.05;34.23;95366.16;5027313;28;20017;-82
2023/04/28 07:52:44;;;;;;;7.35;2.70;;;;;;;11.03;33.75;95354.03;5027770;28;20024;-82
2023/04/28 07:55:09;;;;;;;5.53;2.67;;;;;;;10.92;34.12;95364.50;5028138;28;20022;-83
2023/04/28 07:57:35;;;;;;;3.25;2.30;;;;;;;11.13;34.03;95362.03;5028570;28;20071;-83
2023/04/28 08:00:01;;;;;;;4.43;2.50;;;;;;;11.26;33.05;95364.09;5008441;28;20041;-84
2023/04/28 08:02:26;;;;;;;4.60;2.20;;;;;;;11.23;32.99;95367.69;5027957;28;20027;-82
2023/04/28 08:04:52;;;;;;;4.18;2.38;;;;;;;11.28;32.84;95365.19;5026265;28;20049;-82
2023/04/28 08:07:17;;;;;;;5.88;2.35;;;;;;;11.50;32.79;95368.19;5027472;28;20112;-82
2023/04/28 08:09:47;;;;;;;4.75;2.50;;;;;;;11.66;32.45;95361.88;5026987;28;20047;-82
2023/04/28 08:12:13;;;;;;;4.30;2.30;;;;;;;11.81;32.26;95370.53;5009145;28;20030;-82
2023/04/28 08:14:39;;;;;;;5.53;2.80;;;;;;;12.05;32.79;95365.63;5028686;28;20078;-82
2023/04/28 08:17:04;;;;;;;5.40;2.78;;;;;;;12.22;31.70;95365.09;5037411;28;20041;-81
2023/04/28 08:19:30;;;;;;;4.15;2.60;;;;;;;12.25;31.84;95368.97;5028016;28;20651;-81
2023/04/28 08:21:55;;;;;;;5.22;2.40;;;;;;;12.37;31.64;95368.22;5026126;28;20452;-81
2023/04/28 08:24:20;;;;;;;4.28;2.80;;;;;;;12.48;31.23;95373.44;5025733;28;20021;-82
2023/04/28 08:26:46;;;;;;;3.00;2.00;;;;;;;12.66;30.45;95364.63;5025420;28;20021;-82
2023/04/28 08:29:11;;;;;;;2.92;1.80;;;;;;;12.84;30.21;95364.06;5036824;28;20029;-82
2023/04/28 08:31:37;;;;;;;6.13;2.80;;;;;;;12.94;30.11;95362.97;5028819;28;20458;-83
2023/04/28 08:34:03;;;;;;;4.50;2.05;;;;;;;13.14;29.88;95363.53;5025734;28;20443;-81
2023/04/28 08:36:31;;;;;;;4.68;2.20;;;;;;;12.92;30.05;95365.41;5027517;28;20029;-81
2023/04/28 08:38:58;;;;;;;4.80;2.50;;;;;;;13.10;29.83;95356.56;5028159;28;20100;-81
2023/04/28 08:41:26;;;;;;;4.15;1.83;;;;;;;13.05;29.73;95359.88;5026999;28;20055;-81
2023/04/28 08:43:52;;;;;;;2.78;1.73;;;;;;;13.32;29.29;95362.22;5026418;28;20028;-81
2023/04/28 08:46:20;;;;;;;3.05;1.85;;;;;;;13.49;28.80;95350.56;5024793;28;20037;-83
2023/04/28 08:48:48;;;;;;;3.42;1.55;;;;;;;13.58;28.79;95341.59;5026633;28;20026;-81
2023/04/28 08:51:15;;;;;;;4.88;1.80;;;;;;;13.94;28.53;95349.44;5024323;28;20026;-78
2023/04/28 08:53:43;;;;;;;7.32;2.28;;;;;;;14.09;28.47;95347.69;5025720;28;20030;-77
2023/04/28 08:56:12;;;;;;;4.53;2.10;;;;;;;13.88;28.29;95347.66;5025007;28;20021;-78
2023/04/28 08:58:38;;;;;;;3.97;2.42;;;;;;;13.95;28.11;95356.50;5025188;28;20021;-83
2023/04/28 09:01:04;;;;;;;4.53;2.10;;;;;;;14.23;27.91;95351.19;5025532;28;20041;-81
2023/04/28 09:03:30;;;;;;;2.40;1.63;;;;;;;14.40;27.69;95341.47;5025156;28;20047;-80
2023/04/28 09:05:56;;;;;;;2.55;1.73;;;;;;;14.82;27.57;95341.09;5025049;28;20025;-81
2023/04/28 09:08:21;;;;;;;7.00;1.98;;;;;;;15.06;26.99;95344.09;5024460;28;20045;-79
2023/04/28 09:10:47;;;;;;;6.68;2.20;;;;;;;15.26;27.06;95336.16;5026689;28;20061;-83
2023/04/28 09:13:24;;;;;;;5.03;2.30;;;;;;;15.51;26.68;95339.91;5026841;28;20021;-80
2023/04/28 09:15:50;;;;;;;4.38;2.45;;;;;;;15.59;25.84;95327.28;5025162;28;20026;-81
2023/04/28 09:18:16;;;;;;;5.20;2.08;;;;;;;15.75;25.65;95326.25;5024127;28;20314;-81
2023/04/28 09:20:41;;;;;;;4.07;2.50;;;;;;;15.91;25.48;95331.50;5034353;28;20017;-82
2023/04/28 09:23:19;;;;;;;5.03;1.73;;;;;;;15.86;25.50;95330.09;5035910;28;20499;-78
2023/04/28 09:26:14;;;;;;;5.80;2.00;;;;;;;16.14;25.03;95313.47;5027145;28;20049;-81
2023/04/28 09:28:39;;;;;;;6.00;2.33;;;;;;;16.19;24.52;95326.72;5020261;28;20041;-79
2023/04/28 09:31:05;;;;;;;5.88;3.17;;;;;;;16.62;26.12;95317.19;5025570;28;20025;-80
2023/04/28 09:33:31;;;;;;;3.65;2.35;;;;;;;16.99;25.25;95322.66;5007552;28;20383;-80
2023/04/28 09:35:57;;;;;;;8.25;3.00;;;;;;;17.28;25.16;95310.19;5007489;28;20508;-79
2023/04/28 09:38:22;;;;;;;4.43;2.58;;;;;;;17.57;24.61;95309.53;5025051;28;20048;-79
2023/04/28 09:40:52;;;;;;;6.80;1.92;;;;;;;17.86;23.69;95306.09;5024583;28;20037;-85
2023/04/28 09:43:31;;;;;;;6.40;3.28;;;;;;;18.22;23.66;95296.66;5025113;28;20055;-89
2023/04/28 09:46:02;;;;;;;5.85;3.03;;;;;;;18.53;23.38;95299.75;5025015;28;20053;-84
2023/04/28 09:48:32;;;;;;;4.70;2.10;;;;;;;18.92;22.97;95298.84;5023407;28;20032;-78
2023/04/28 09:50:59;;;;;;;5.55;2.55;;;;;;;18.91;22.22;95292.53;5024313;28;20022;-84
2023/04/28 09:53:26;;;;;;;6.78;2.45;;;;;;;19.03;21.71;95296.25;5024017;28;20095;-84
2023/04/28 09:55:53;;;;;;;10.10;2.90;;;;;;;18.89;22.50;95294.28;5023980;28;20021;-86
2023/04/28 09:58:20;;;;;;;3.88;2.05;;;;;;;19.27;22.25;95293.31;5023921;28;20029;-77
2023/04/28 10:00:51;;;;;;;5.50;2.88;;;;;;;19.30;21.71;95281.19;5023049;28;20042;-78
2023/04/28 10:03:17;;;;;;;3.67;1.80;;;;;;;19.32;21.02;95287.78;5024027;28;20030;-77
2023/04/28 10:05:43;;;;;;;3.85;2.03;;;;;;;19.53;20.56;95283.00;5006413;28;20160;-78
2023/04/28 10:08:08;;;;;;;5.20;2.03;;;;;;;19.62;20.77;95274.56;5023569;28;20033;-77
2023/04/28 10:10:34;;;;;;;4.00;1.90;;;;;;;19.79;20.27;95271.19;5023024;28;20439;-77
2023/04/28 10:13:00;;;;;;;3.72;1.63;;;;;;;19.99;20.06;95273.94;5023638;28;20138;-78
2023/04/28 10:15:25;;;;;;;3.25;1.80;;;;;;;19.58;20.69;95264.81;5023257;28;20026;-77
2023/04/28 10:17:52;;;;;;;3.67;2.15;;;;;;;19.86;20.54;95268.75;5006586;28;20053;-77
2023/04/28 10:20:20;;;;;;;3.55;1.92;;;;;;;19.70;20.30;95265.75;5028441;28;20121;-76
2023/04/28 10:22:51;;;;;;;3.58;1.52;;;;;;;19.78;20.86;95270.41;5022691;28;20034;-80
2023/04/28 10:25:26;;;;;;;3.47;1.63;;;;;;;20.05;20.04;95268.44;5025458;28;20344;-80
2023/04/28 10:27:52;;;;;;;4.18;2.35;;;;;;;20.04;20.90;95264.88;5008931;28;20071;-75
2023/04/28 10:30:22;;;;;;;4.93;2.72;;;;;;;20.13;19.90;95255.59;5005981;28;20062;-75
2023/04/28 10:33:10;;;;;;;12.70;3.47;;;;;;;20.15;20.84;95261.44;5007324;28;20025;-76
2023/04/28 10:35:39;;;;;;;7.80;2.83;;;;;;;20.33;20.29;95255.53;5023537;28;20039;-83
2023/04/28 10:38:19;;;;;;;6.35;2.53;;;;;;;20.60;19.17;95257.06;5025432;28;20033;-81
2023/04/28 10:40:53;;;;;;;9.38;2.95;;;;;;;20.53;19.89;95253.94;5025741;28;20025;-83
2023/04/28 10:43:24;;;;;;;4.95;1.77;;;;;;;20.84;19.25;95248.34;5026053;28;20045;-84
2023/04/28 10:45:57;;;;;;;5.47;2.22;;;;;;;21.07;19.05;95249.28;5025516;28;20053;-80
2023/04/28 10:48:45;;;;;;;3.97;2.30;;;;;;;21.06;19.27;95242.16;5024189;28;20061;-82
2023/04/28 10:51:14;;;;;;;4.32;2.35;;;;;;;20.94;19.54;95238.53;5028883;28;20040;-76
2023/04/28 10:53:45;;;;;;;4.60;2.55;;;;;;;20.82;18.88;95233.38;5028248;28;20037;-77
2023/04/28 10:56:15;;;;;;;2.95;1.50;;;;;;;20.66;19.04;95229.94;5028361;28;20025;-76
2023/04/28 10:58:42;;;;;;;2.72;1.70;;;;;;;20.61;18.85;95222.28;5027953;28;20025;-79
2023/04/28 11:01:20;;;;;;;3.45;1.73;;;;;;;20.83;19.44;95232.09;5026191;28;20041;-76
2023/04/28 11:03:49;;;;;;;5.93;1.70;;;;;;;20.94;19.32;95226.59;5029299;28;20033;-77
2023/04/28 11:06:43;;;;;;;4.72;2.20;;;;;;;20.84;19.32;95223.22;5027726;28;20029;-76
2023/04/28 11:09:12;;;;;;;;;;;;;;;21.08;21.08;95219.28;5028607;28;20175;-77
2023/04/28 11:11:38;;;;;;;3.47;1.75;;;;;;;21.20;18.91;95209.69;5027954;28;19913;-77
2023/04/28 11:14:19;;;;;;;5.03;1.85;;;;;;;21.63;19.27;95218.06;5030724;28;20053;-75
2023/04/28 11:16:50;;;;;;;5.10;1.90;;;;;;;21.72;19.16;95213.00;5028608;28;20543;-78
2023/04/28 11:19:29;;;;;;;5.45;1.83;;;;;;;22.06;20.35;95206.72;5027755;28;20094;-77
2023/04/28 11:21:56;;;;;;;6.95;2.15;;;;;;;22.36;18.64;95205.00;5010019;28;20033;-77
2023/04/28 11:24:24;;;;;;;3.72;2.22;;;;;;;22.59;18.71;95196.59;5009968;28;20087;-76
2023/04/28 11:26:49;;;;;;;3.03;1.73;;;;;;;22.76;20.24;95195.31;5025724;28;20080;-78
2023/04/28 11:29:15;;;;;;;3.75;1.42;;;;;;;23.06;19.72;95194.78;5027955;28;20073;-76
2023/04/28 11:31:48;;;;;;;3.22;1.70;;;;;;;23.43;19.30;95191.63;5009692;28;20096;-73
2023/04/28 11:34:18;;;;;;;4.10;1.70;;;;;;;23.54;18.35;95191.56;5031022;28;20025;-73
2023/04/28 11:36:44;;;;;;;7.35;2.08;;;;;;;23.77;18.16;95185.88;5025219;28;20040;-71